Ensenada, Argentina
Current Conditions -  °F | °C
As of 6:00 PM on Tuesday 25 Nov 2014 (Local Time) from SABE Reporting Station
Clear Clear  
Wind Chill: 70°   Ceiling: Unl
Heat Index: 70°   Visibility: 6mi
Dew Point: 50°   Wind: 12mph
Humidity: 49%   Direction: 100°E
Pressure: 29.88"   Gusts: NA
Location:  34.85°S, 57.92°W
Report Text: SABE 252100Z 10010KT CAVOK 21/10 Q1012
Loading
Personal Weather Stations






























Interactive Weather Map New forecast layout! Learn more

10-Day Weather Forecast

Advertisements
Track Severe Weather on mobile